createdAt,value
2018-09-30T00:00:54.858Z,5.80
2018-09-30T00:03:24.748Z,6.27
2018-09-30T00:05:53.932Z,5.40
2018-09-30T00:08:23.161Z,4.80
2018-09-30T00:10:52.355Z,4.90
2018-09-30T00:13:22.172Z,5.60
2018-09-30T00:15:51.349Z,5.23
2018-09-30T00:18:21.215Z,5.93
2018-09-30T00:20:50.541Z,4.80
2018-09-30T00:23:19.728Z,4.53
2018-09-30T00:26:56.652Z,5.33
2018-09-30T00:29:26.748Z,5.00
2018-09-30T00:31:56.240Z,4.37
2018-09-30T00:34:29.368Z,5.33
2018-09-30T00:36:59.573Z,5.30
2018-09-30T00:39:28.831Z,5.40
2018-09-30T00:41:58.167Z,5.97
2018-09-30T00:44:27.355Z,4.70
2018-09-30T00:46:56.951Z,5.70
2018-09-30T00:49:26.196Z,6.50
2018-09-30T00:51:55.381Z,5.10
2018-09-30T00:54:24.546Z,4.73
2018-09-30T00:56:53.776Z,5.27
2018-09-30T00:59:23.009Z,4.70
2018-09-30T01:01:52.161Z,5.10
2018-09-30T01:04:21.691Z,5.57
2018-09-30T01:06:50.863Z,4.83
2018-09-30T01:09:20.050Z,4.73
2018-09-30T01:11:49.271Z,4.97
2018-09-30T01:14:18.440Z,4.70
2018-09-30T01:16:47.640Z,4.87
2018-09-30T01:19:17.291Z,4.50
2018-09-30T01:21:46.471Z,4.30
2018-09-30T01:24:15.672Z,4.33
2018-09-30T01:26:45.399Z,5.40
2018-09-30T01:29:14.575Z,4.70
2018-09-30T01:31:43.772Z,4.37
2018-09-30T01:34:12.998Z,4.17
2018-09-30T01:36:42.175Z,3.87
2018-09-30T01:39:11.370Z,4.40
2018-09-30T01:41:40.584Z,4.70
2018-09-30T01:44:09.778Z,6.43
2018-09-30T01:46:39.484Z,6.47
2018-09-30T01:49:09.108Z,4.80
2018-09-30T01:51:38.288Z,4.17
2018-09-30T01:54:07.522Z,4.60
2018-09-30T01:56:36.728Z,3.80
2018-09-30T01:59:06.079Z,4.50
2018-09-30T02:01:35.243Z,4.80
2018-09-30T02:04:04.455Z,4.90
2018-09-30T02:06:33.631Z,5.27
2018-09-30T02:09:02.944Z,5.00
2018-09-30T02:11:32.503Z,4.20
2018-09-30T02:14:01.708Z,4.30
2018-09-30T02:16:30.883Z,5.60
2018-09-30T02:19:00.095Z,4.33
2018-09-30T02:21:29.776Z,4.30
2018-09-30T02:23:58.943Z,4.50
2018-09-30T02:26:28.148Z,5.50
2018-09-30T02:28:57.310Z,5.33
2018-09-30T02:31:26.492Z,3.80
2018-09-30T02:33:55.912Z,3.93
2018-09-30T02:36:25.093Z,5.10
2018-09-30T02:38:54.268Z,4.30
2018-09-30T02:41:23.472Z,4.60
2018-09-30T02:43:52.665Z,4.40
2018-09-30T02:46:22.135Z,4.10
2018-09-30T02:48:51.336Z,4.67
2018-09-30T02:51:20.536Z,5.33
2018-09-30T02:53:49.753Z,4.23
2018-09-30T02:56:19.307Z,4.73
2018-09-30T02:58:48.572Z,3.93
2018-09-30T03:01:17.756Z,5.30
2018-09-30T03:03:46.968Z,5.00
2018-09-30T03:08:28.929Z,4.40
2018-09-30T03:10:58.179Z,4.87
2018-09-30T03:13:27.381Z,4.20
2018-09-30T03:15:56.544Z,4.10
2018-09-30T03:18:26.735Z,4.50
2018-09-30T03:20:55.907Z,4.93
2018-09-30T03:23:25.400Z,4.90
2018-09-30T03:25:54.603Z,4.20
2018-09-30T03:28:23.765Z,4.13
2018-09-30T03:30:52.942Z,4.10
2018-09-30T03:33:22.163Z,4.10
2018-09-30T03:35:51.359Z,3.77
2018-09-30T03:38:20.545Z,4.60
2018-09-30T03:40:49.971Z,4.40
2018-09-30T03:43:19.141Z,4.10
2018-09-30T03:45:48.311Z,4.50
2018-09-30T03:48:17.536Z,5.00
2018-09-30T03:50:46.719Z,4.03
2018-09-30T03:53:16.332Z,4.10
2018-09-30T03:55:45.620Z,4.70
2018-09-30T03:58:14.796Z,4.80
2018-09-30T04:00:43.971Z,3.63
2018-09-30T04:03:13.230Z,4.50
2018-09-30T04:05:42.416Z,4.90
2018-09-30T04:08:11.588Z,4.10
2018-09-30T04:10:40.806Z,4.80
2018-09-30T04:13:09.990Z,3.73
2018-09-30T04:15:39.275Z,4.33
2018-09-30T04:18:08.795Z,3.90
2018-09-30T04:20:38.017Z,3.90
2018-09-30T04:23:07.211Z,4.17
2018-09-30T04:25:37.248Z,4.33
2018-09-30T04:28:06.423Z,3.80
2018-09-30T04:30:35.628Z,4.07
2018-09-30T04:33:04.971Z,4.17
2018-09-30T04:35:34.124Z,4.60
2018-09-30T04:38:03.304Z,4.60
2018-09-30T04:40:32.515Z,4.07
2018-09-30T04:43:01.688Z,4.80
2018-09-30T04:45:30.863Z,4.80
2018-09-30T04:48:00.340Z,4.70
2018-09-30T04:50:29.499Z,4.50
2018-09-30T04:52:58.679Z,4.37
2018-09-30T04:55:28.000Z,4.77
2018-09-30T04:57:57.164Z,3.77
2018-09-30T05:00:26.352Z,4.80
2018-09-30T05:02:55.532Z,4.50
2018-09-30T05:05:24.712Z,4.17
2018-09-30T05:07:53.879Z,4.60
2018-09-30T05:10:23.453Z,3.80
2018-09-30T05:12:52.671Z,3.70
2018-09-30T05:15:21.859Z,3.60
2018-09-30T05:17:51.081Z,4.37
2018-09-30T05:20:20.292Z,3.70
2018-09-30T05:22:49.460Z,4.00
2018-09-30T05:25:18.655Z,3.43
2018-09-30T05:27:48.308Z,4.43
2018-09-30T05:30:17.476Z,4.10
2018-09-30T05:32:47.145Z,4.77
2018-09-30T05:35:16.319Z,4.10
2018-09-30T05:37:45.503Z,4.03
2018-09-30T05:40:14.734Z,4.27
2018-09-30T05:42:43.895Z,4.00
2018-09-30T05:45:13.152Z,4.50
2018-09-30T05:47:42.352Z,4.47
2018-09-30T05:50:11.530Z,3.90
2018-09-30T05:52:40.692Z,4.30
2018-09-30T05:55:10.239Z,5.17
2018-09-30T05:57:39.592Z,4.77
2018-09-30T06:00:08.754Z,4.97
2018-09-30T06:02:37.935Z,5.60
2018-09-30T06:05:07.133Z,5.10
2018-09-30T06:07:36.312Z,5.07
2018-09-30T06:10:05.595Z,5.00
2018-09-30T06:12:34.771Z,5.00
2018-09-30T06:15:04.003Z,5.80
2018-09-30T06:17:33.637Z,5.10
2018-09-30T06:20:02.799Z,4.70
2018-09-30T06:22:32.036Z,5.27
2018-09-30T06:25:01.232Z,3.97
2018-09-30T06:27:30.395Z,4.80
2018-09-30T06:29:59.899Z,4.97
2018-09-30T06:32:29.100Z,5.07
2018-09-30T06:34:58.273Z,5.17
2018-09-30T06:37:27.454Z,4.83
2018-09-30T06:39:57.037Z,4.90
2018-09-30T06:42:26.219Z,4.77
2018-09-30T06:44:55.450Z,4.60
2018-09-30T06:47:24.635Z,5.17
2018-09-30T06:49:53.823Z,4.70
2018-09-30T06:52:23.215Z,4.60
2018-09-30T06:54:52.472Z,5.20
2018-09-30T06:57:21.635Z,4.70
2018-09-30T06:59:50.810Z,4.73
2018-09-30T07:02:20.133Z,5.23
2018-09-30T07:04:49.339Z,5.00
2018-09-30T07:07:18.475Z,5.50
2018-09-30T07:09:47.655Z,5.10
2018-09-30T07:12:16.863Z,4.70
2018-09-30T07:14:46.048Z,4.97
2018-09-30T07:17:15.252Z,4.93
2018-09-30T07:19:44.446Z,5.03
2018-09-30T07:22:13.690Z,5.10
2018-09-30T07:24:42.899Z,4.77
2018-09-30T07:27:12.064Z,4.77
2018-09-30T07:29:41.240Z,4.33
2018-09-30T07:32:10.907Z,4.60
2018-09-30T07:34:40.142Z,5.03
2018-09-30T07:37:09.547Z,5.10
2018-09-30T07:39:38.712Z,4.90
2018-09-30T07:42:07.922Z,5.13
2018-09-30T07:44:37.092Z,4.93
2018-09-30T07:47:06.487Z,4.70
2018-09-30T07:49:35.700Z,5.07
2018-09-30T07:52:05.091Z,5.20
2018-09-30T07:54:34.292Z,5.30
2018-09-30T07:57:03.467Z,5.07
2018-09-30T07:59:32.650Z,4.40
2018-09-30T08:02:01.848Z,4.87
2018-09-30T08:04:31.048Z,4.40
2018-09-30T08:07:00.228Z,4.33
2018-09-30T08:09:29.944Z,4.70
2018-09-30T08:11:59.116Z,3.63
2018-09-30T08:14:28.641Z,4.20
2018-09-30T08:16:57.952Z,3.80
2018-09-30T08:19:27.056Z,3.70
2018-09-30T08:21:56.225Z,4.10
2018-09-30T08:24:25.642Z,4.27
2018-09-30T08:26:55.012Z,3.80
2018-09-30T08:29:24.185Z,3.87
2018-09-30T08:31:53.752Z,4.10
2018-09-30T08:34:23.516Z,4.03
2018-09-30T08:36:52.752Z,3.53
2018-09-30T08:39:21.987Z,3.23
2018-09-30T08:41:51.173Z,2.80
2018-09-30T08:44:20.422Z,3.20
2018-09-30T08:46:49.640Z,3.30
2018-09-30T08:49:18.772Z,3.20
2018-09-30T08:51:47.947Z,3.10
2018-09-30T08:54:17.449Z,3.07
2018-09-30T08:56:46.640Z,3.40
2018-09-30T08:59:15.816Z,3.70
2018-09-30T09:01:45.015Z,3.90
2018-09-30T09:04:14.204Z,4.27
2018-09-30T09:06:43.371Z,3.60
2018-09-30T09:09:13.539Z,3.90
2018-09-30T09:11:42.720Z,4.77
2018-09-30T09:14:11.919Z,3.70
2018-09-30T09:16:41.455Z,4.43
2018-09-30T09:19:10.656Z,4.90
2018-09-30T09:21:39.815Z,3.77
2018-09-30T09:24:09.164Z,4.77
2018-09-30T09:26:38.340Z,4.10
2018-09-30T09:29:07.723Z,4.60
2018-09-30T09:31:37.033Z,4.43
2018-09-30T09:34:06.235Z,4.00
2018-09-30T09:36:35.944Z,4.17
2018-09-30T09:39:08.529Z,4.33
2018-09-30T09:41:38.132Z,3.87
2018-09-30T09:44:08.136Z,4.10
2018-09-30T09:46:37.360Z,3.73
2018-09-30T09:49:06.567Z,3.77
2018-09-30T09:51:35.763Z,3.60
2018-09-30T09:54:05.002Z,4.00
2018-09-30T09:56:34.240Z,3.40
2018-09-30T09:59:03.444Z,3.80
2018-09-30T10:01:32.720Z,4.70
2018-09-30T10:04:01.907Z,3.30
2018-09-30T10:06:31.112Z,4.00
2018-09-30T10:09:00.663Z,3.97
2018-09-30T10:11:30.039Z,3.60
2018-09-30T10:13:59.212Z,3.90
2018-09-30T10:16:28.411Z,3.63
2018-09-30T10:18:57.583Z,3.70
2018-09-30T10:21:26.772Z,3.80
2018-09-30T10:23:56.044Z,3.50
2018-09-30T10:26:25.263Z,3.60
2018-09-30T10:28:54.443Z,3.70
2018-09-30T10:31:24.470Z,3.73
2018-09-30T10:33:53.675Z,3.27
2018-09-30T10:36:22.872Z,3.27
2018-09-30T10:38:52.784Z,3.87
2018-09-30T10:41:21.987Z,3.73
2018-09-30T10:43:51.180Z,3.40
2018-09-30T10:46:20.476Z,3.23
2018-09-30T10:48:49.668Z,4.47
2018-09-30T10:51:18.971Z,3.47
2018-09-30T10:53:48.924Z,3.30
2018-09-30T10:56:18.071Z,4.53
2018-09-30T10:58:47.243Z,3.63
2018-09-30T11:01:16.459Z,3.27
2018-09-30T11:03:45.752Z,3.90
2018-09-30T11:06:14.948Z,6.57
2018-09-30T11:08:44.603Z,3.80
2018-09-30T11:11:13.897Z,4.00
2018-09-30T11:13:43.088Z,3.50
2018-09-30T11:16:12.609Z,3.73
2018-09-30T11:18:43.224Z,3.60
2018-09-30T11:21:12.672Z,3.03
2018-09-30T11:23:41.891Z,3.47
2018-09-30T11:26:11.143Z,3.50
2018-09-30T11:28:40.375Z,4.00
2018-09-30T11:31:09.954Z,3.63
2018-09-30T11:33:39.190Z,3.07
2018-09-30T11:36:08.418Z,3.73
2018-09-30T11:38:38.492Z,3.67
2018-09-30T11:41:07.699Z,3.93
2018-09-30T11:43:38.279Z,3.20
2018-09-30T11:46:07.804Z,3.70
2018-09-30T11:48:36.969Z,3.23
2018-09-30T11:51:06.455Z,3.60
2018-09-30T11:53:35.841Z,3.47
2018-09-30T11:56:05.071Z,3.60
2018-09-30T11:58:34.506Z,3.80
2018-09-30T12:01:03.731Z,3.50
2018-09-30T12:03:32.912Z,3.40
2018-09-30T12:06:02.259Z,3.57
2018-09-30T12:08:31.500Z,3.87
2018-09-30T12:11:00.822Z,3.27
2018-09-30T12:13:29.999Z,3.20
2018-09-30T12:15:59.482Z,3.73
2018-09-30T12:18:28.763Z,3.40
2018-09-30T12:20:57.947Z,3.50
2018-09-30T12:23:27.176Z,3.30
2018-09-30T12:25:56.756Z,3.80
2018-09-30T12:28:25.823Z,3.07
2018-09-30T12:30:55.284Z,4.30
2018-09-30T12:33:24.476Z,3.77
2018-09-30T12:35:53.665Z,4.20
2018-09-30T12:38:22.985Z,4.03
2018-09-30T12:40:52.391Z,3.30
2018-09-30T12:43:21.584Z,3.83
2018-09-30T12:45:52.032Z,3.77
2018-09-30T12:48:21.232Z,4.00
2018-09-30T12:50:50.443Z,4.57
2018-09-30T12:53:19.747Z,3.90
2018-09-30T12:55:49.215Z,3.47
2018-09-30T12:58:19.484Z,3.30
2018-09-30T13:00:49.044Z,3.60
2018-09-30T13:03:20.292Z,3.93
2018-09-30T13:05:49.812Z,3.80
2018-09-30T13:08:21.596Z,3.80
2018-09-30T13:10:50.809Z,4.13
2018-09-30T13:13:20.160Z,4.30
2018-09-30T13:15:49.824Z,9.60
2018-09-30T13:18:20.458Z,4.33
2018-09-30T13:20:50.210Z,3.67
2018-09-30T13:23:19.502Z,3.60
2018-09-30T13:25:48.791Z,3.73
2018-09-30T13:28:18.481Z,3.93
2018-09-30T13:30:48.932Z,3.77
2018-09-30T13:33:18.261Z,6.43
2018-09-30T13:35:47.492Z,4.27
2018-09-30T13:38:16.708Z,4.03
2018-09-30T13:40:46.110Z,3.70
2018-09-30T13:43:15.297Z,4.10
2018-09-30T13:45:44.541Z,4.57
2018-09-30T13:48:13.775Z,3.57
2018-09-30T13:50:43.051Z,3.90
2018-09-30T13:53:12.356Z,3.90
2018-09-30T13:55:41.568Z,4.40
2018-09-30T13:58:15.006Z,12.20
2018-09-30T14:00:44.235Z,3.33
2018-09-30T14:03:13.491Z,3.00
2018-09-30T14:05:43.411Z,3.20
2018-09-30T14:08:12.802Z,4.40
2018-09-30T14:10:42.133Z,3.20
2018-09-30T14:13:11.465Z,3.60
2018-09-30T14:15:40.671Z,3.97
2018-09-30T14:18:11.416Z,3.37
2018-09-30T14:20:40.832Z,3.73
2018-09-30T14:23:10.355Z,4.43
2018-09-30T14:25:39.759Z,3.47
2018-09-30T14:28:09.284Z,3.87
2018-09-30T14:30:38.644Z,3.50
2018-09-30T14:33:07.904Z,3.87
2018-09-30T14:35:37.103Z,3.00
2018-09-30T14:38:06.670Z,3.30
2018-09-30T14:40:35.904Z,3.80
2018-09-30T14:43:05.526Z,4.03
2018-09-30T14:45:34.728Z,3.70
2018-09-30T14:48:03.946Z,3.87
2018-09-30T14:50:33.453Z,3.63
2018-09-30T14:53:02.596Z,3.60
2018-09-30T14:55:32.171Z,4.33
2018-09-30T14:58:01.544Z,3.80
2018-09-30T15:00:30.795Z,3.90
2018-09-30T15:03:00.152Z,2.90
2018-09-30T15:05:29.351Z,3.40
2018-09-30T15:07:58.754Z,2.80
2018-09-30T15:10:28.118Z,3.20
2018-09-30T15:12:57.604Z,3.47
2018-09-30T15:15:27.035Z,3.93
2018-09-30T15:17:56.204Z,3.60
2018-09-30T15:20:25.504Z,3.07
2018-09-30T15:22:54.863Z,3.17
2018-09-30T15:25:24.155Z,3.50
2018-09-30T15:27:53.773Z,3.40
2018-09-30T15:30:25.479Z,3.70
2018-09-30T15:32:55.097Z,3.63
2018-09-30T15:35:24.462Z,2.50
2018-09-30T15:37:53.731Z,3.27
2018-09-30T15:40:23.072Z,3.40
2018-09-30T15:42:52.348Z,4.30
2018-09-30T15:45:21.572Z,3.57
2018-09-30T15:47:50.975Z,4.23
2018-09-30T15:50:22.399Z,3.00
2018-09-30T15:52:51.624Z,3.13
2018-09-30T15:55:20.900Z,4.70
2018-09-30T15:57:50.064Z,3.80
2018-09-30T16:00:19.311Z,4.07
2018-09-30T16:02:49.836Z,3.40
2018-09-30T16:05:19.051Z,3.33
2018-09-30T16:07:48.217Z,3.63
2018-09-30T16:10:17.507Z,3.70
2018-09-30T16:12:46.724Z,2.97
2018-09-30T16:15:16.017Z,3.63
2018-09-30T16:17:45.596Z,3.00
2018-09-30T16:20:15.025Z,2.53
2018-09-30T16:22:44.330Z,3.10
2018-09-30T16:25:13.903Z,3.13
2018-09-30T16:27:44.365Z,3.00
2018-09-30T16:30:13.608Z,3.83
2018-09-30T16:32:42.856Z,3.40
2018-09-30T16:35:12.076Z,3.23
2018-09-30T16:37:41.589Z,3.23
2018-09-30T16:40:11.114Z,3.80
2018-09-30T16:42:41.368Z,4.60
2018-09-30T16:45:11.032Z,3.37
2018-09-30T16:47:41.567Z,3.97
2018-09-30T16:50:10.824Z,4.03
2018-09-30T16:52:40.040Z,3.97
2018-09-30T16:55:09.411Z,3.80
2018-09-30T16:57:38.799Z,4.20
2018-09-30T17:00:09.079Z,3.67
2018-09-30T17:02:38.663Z,3.63
2018-09-30T17:05:07.904Z,3.87
2018-09-30T17:07:37.240Z,4.60
2018-09-30T17:10:06.498Z,4.40
2018-09-30T17:12:35.788Z,4.90
2018-09-30T17:15:06.630Z,5.00
2018-09-30T17:17:35.904Z,4.77
2018-09-30T17:20:05.324Z,4.30
2018-09-30T17:22:34.801Z,5.20
2018-09-30T17:25:04.363Z,4.40
2018-09-30T17:27:33.844Z,5.30
2018-09-30T17:30:03.611Z,5.10
2018-09-30T17:32:33.974Z,4.80
2018-09-30T17:35:04.275Z,5.70
2018-09-30T17:37:33.684Z,5.67
2018-09-30T17:40:07.707Z,6.50
2018-09-30T17:42:41.829Z,6.27
2018-09-30T17:45:15.737Z,5.40
2018-09-30T17:47:44.963Z,6.80
2018-09-30T17:50:14.481Z,5.60
2018-09-30T17:52:50.384Z,5.67
2018-09-30T17:55:20.289Z,5.20
2018-09-30T17:57:49.550Z,5.10
2018-09-30T18:00:19.299Z,5.00
2018-09-30T18:02:49.047Z,6.00
2018-09-30T18:05:18.373Z,5.47
2018-09-30T18:07:47.573Z,5.90
2018-09-30T18:10:16.787Z,6.07
2018-09-30T18:12:45.988Z,6.97
2018-09-30T18:15:15.219Z,7.00
2018-09-30T18:17:44.408Z,6.67
2018-09-30T18:20:13.672Z,6.37
2018-09-30T18:22:42.953Z,6.37
2018-09-30T18:25:12.160Z,5.67
2018-09-30T18:27:41.338Z,5.20
2018-09-30T18:30:10.962Z,5.50
2018-09-30T18:32:40.173Z,6.90
2018-09-30T18:35:09.444Z,7.67
2018-09-30T18:37:38.688Z,8.47
2018-09-30T18:40:07.943Z,7.40
2018-09-30T18:42:37.069Z,8.53
2018-09-30T18:45:06.564Z,6.70
2018-09-30T18:47:35.747Z,8.10
2018-09-30T18:50:05.193Z,6.77
2018-09-30T18:52:34.400Z,8.10
2018-09-30T18:55:03.607Z,6.90
2018-09-30T18:57:32.806Z,6.97
2018-09-30T19:00:02.116Z,6.50
2018-09-30T19:02:31.340Z,6.70
2018-09-30T19:05:00.606Z,7.27
2018-09-30T19:07:30.047Z,6.47
2018-09-30T19:09:59.315Z,5.80
2018-09-30T19:12:28.677Z,6.17
2018-09-30T19:14:57.997Z,5.50
2018-09-30T19:17:27.087Z,6.00
2018-09-30T19:19:56.269Z,6.20
2018-09-30T19:22:25.891Z,6.27
2018-09-30T19:24:56.379Z,6.50
2018-09-30T19:27:25.550Z,6.03
2018-09-30T19:29:55.857Z,6.10
2018-09-30T19:32:25.239Z,5.73
2018-09-30T19:34:54.492Z,6.40
2018-09-30T19:37:23.817Z,5.93
2018-09-30T19:39:52.999Z,5.97
2018-09-30T19:42:22.226Z,6.00
2018-09-30T19:44:51.452Z,6.70
2018-09-30T19:47:21.300Z,6.73
2018-09-30T19:49:50.495Z,6.93
2018-09-30T19:52:19.903Z,6.40
2018-09-30T19:54:49.125Z,6.30
2018-09-30T19:57:18.316Z,6.20
2018-09-30T19:59:47.579Z,6.70
2018-09-30T20:02:16.808Z,7.47
2018-09-30T20:04:46.435Z,6.83
2018-09-30T20:07:15.695Z,6.77
2018-09-30T20:09:44.866Z,7.57
2018-09-30T20:12:14.053Z,6.03
2018-09-30T20:14:44.777Z,6.57
2018-09-30T20:17:14.123Z,6.27
2018-09-30T20:19:47.448Z,6.97
2018-09-30T20:22:17.924Z,7.50
2018-09-30T20:24:47.154Z,7.63
2018-09-30T20:27:16.359Z,6.10
2018-09-30T20:29:45.809Z,6.50
2018-09-30T20:32:14.992Z,6.60
2018-09-30T20:34:44.636Z,6.77
2018-09-30T20:37:13.865Z,6.80
2018-09-30T20:39:42.987Z,7.00
2018-09-30T20:42:12.236Z,6.07
2018-09-30T20:44:41.415Z,7.00
2018-09-30T20:47:10.717Z,6.10
2018-09-30T20:49:40.321Z,6.57
2018-09-30T20:52:09.516Z,7.43
2018-09-30T20:54:38.687Z,9.93
2018-09-30T20:57:08.250Z,7.60
2018-09-30T20:59:37.428Z,6.83
2018-09-30T21:02:06.939Z,6.70
2018-09-30T21:04:36.150Z,7.60
2018-09-30T21:07:05.362Z,6.97
2018-09-30T21:09:34.619Z,6.80
2018-09-30T21:12:04.220Z,5.80
2018-09-30T21:14:33.415Z,6.07
2018-09-30T21:17:02.616Z,6.10
2018-09-30T21:19:32.126Z,6.63
2018-09-30T21:22:01.311Z,6.90
2018-09-30T21:24:30.485Z,7.00
2018-09-30T21:26:59.696Z,6.97
2018-09-30T21:29:28.883Z,5.60
2018-09-30T21:31:58.067Z,6.17
2018-09-30T21:34:27.312Z,6.23
2018-09-30T21:36:56.507Z,5.80
2018-09-30T21:39:25.684Z,6.03
2018-09-30T21:41:55.211Z,5.93
2018-09-30T21:44:24.380Z,5.00
2018-09-30T21:46:53.571Z,5.73
2018-09-30T21:49:22.771Z,5.17
2018-09-30T21:51:52.752Z,5.73
2018-09-30T21:54:21.944Z,6.30
2018-09-30T21:56:51.319Z,5.77
2018-09-30T21:59:20.507Z,6.17
2018-09-30T22:01:49.768Z,5.93
2018-09-30T22:04:19.120Z,5.30
2018-09-30T22:06:48.360Z,6.13
2018-09-30T22:09:17.531Z,5.93
2018-09-30T22:11:46.726Z,5.60
2018-09-30T22:14:16.046Z,5.27
2018-09-30T22:16:45.232Z,5.43
2018-09-30T22:19:14.572Z,5.87
2018-09-30T22:21:43.964Z,5.57
2018-09-30T22:24:13.160Z,5.70
2018-09-30T22:26:42.418Z,6.17
2018-09-30T22:29:11.613Z,5.93
2018-09-30T22:31:40.794Z,6.30
2018-09-30T22:34:10.010Z,5.90
2018-09-30T22:36:39.203Z,6.80
2018-09-30T22:39:09.105Z,5.40
2018-09-30T22:41:38.504Z,5.70
2018-09-30T22:44:07.797Z,5.67
2018-09-30T22:46:36.980Z,6.27
2018-09-30T22:49:06.288Z,6.67
2018-09-30T22:51:35.490Z,6.90
2018-09-30T22:54:05.371Z,5.87
2018-09-30T22:56:34.571Z,6.23
2018-09-30T22:59:03.791Z,6.30
2018-09-30T23:01:32.977Z,6.50
2018-09-30T23:04:02.511Z,7.50
2018-09-30T23:06:31.751Z,6.63
2018-09-30T23:09:00.940Z,6.37
2018-09-30T23:11:30.352Z,6.10
2018-09-30T23:13:59.539Z,6.13
2018-09-30T23:16:28.720Z,5.43
2018-09-30T23:18:57.927Z,5.80
2018-09-30T23:21:27.111Z,5.37
2018-09-30T23:23:56.284Z,5.70
2018-09-30T23:26:25.479Z,4.47
2018-09-30T23:28:54.664Z,4.50
2018-09-30T23:31:23.844Z,4.47
2018-09-30T23:33:53.400Z,4.20
2018-09-30T23:36:22.597Z,4.70
2018-09-30T23:38:51.763Z,4.17
2018-09-30T23:41:20.959Z,4.17
2018-09-30T23:43:50.136Z,4.70
2018-09-30T23:46:19.311Z,4.40
2018-09-30T23:48:48.507Z,5.17
2018-09-30T23:51:17.692Z,4.83
2018-09-30T23:53:46.884Z,4.37
2018-09-30T23:56:16.667Z,4.10
2018-09-30T23:58:45.861Z,4.67
